sensor_id;sensor_type;location;lat;lon;timestamp;temperature;humidity
76537;DHT22;65381;51.254;15.592;2022-11-23T00:01:32;0.40;86.20
76537;DHT22;65381;51.254;15.592;2022-11-23T00:04:08;0.40;86.20
76537;DHT22;65381;51.254;15.592;2022-11-23T00:06:36;0.40;86.20
76537;DHT22;65381;51.254;15.592;2022-11-23T00:09:06;0.50;86.20
76537;DHT22;65381;51.254;15.592;2022-11-23T00:11:34;0.50;86.20
76537;DHT22;65381;51.254;15.592;2022-11-23T00:14:03;0.40;86.10
76537;DHT22;65381;51.254;15.592;2022-11-23T00:16:31;0.40;86.10
76537;DHT22;65381;51.254;15.592;2022-11-23T00:19:04;0.40;86.10
76537;DHT22;65381;51.254;15.592;2022-11-23T00:21:32;0.50;86.10
76537;DHT22;65381;51.254;15.592;2022-11-23T00:24:00;0.50;86.00
76537;DHT22;65381;51.254;15.592;2022-11-23T00:26:27;0.50;86.10
76537;DHT22;65381;51.254;15.592;2022-11-23T00:28:55;0.60;86.00
76537;DHT22;65381;51.254;15.592;2022-11-23T00:31:27;0.60;85.80
76537;DHT22;65381;51.254;15.592;2022-11-23T00:33:55;0.80;85.50
76537;DHT22;65381;51.254;15.592;2022-11-23T00:36:24;0.90;85.10
76537;DHT22;65381;51.254;15.592;2022-11-23T00:38:53;0.90;84.80
76537;DHT22;65381;51.254;15.592;2022-11-23T00:41:23;1.00;84.60
76537;DHT22;65381;51.254;15.592;2022-11-23T00:43:51;0.90;84.70
76537;DHT22;65381;51.254;15.592;2022-11-23T00:46:24;0.90;84.70
76537;DHT22;65381;51.254;15.592;2022-11-23T00:48:53;0.90;84.80
76537;DHT22;65381;51.254;15.592;2022-11-23T00:51:26;0.80;84.80
76537;DHT22;65381;51.254;15.592;2022-11-23T00:53:55;0.80;84.90
76537;DHT22;65381;51.254;15.592;2022-11-23T00:56:25;0.90;84.70
76537;DHT22;65381;51.254;15.592;2022-11-23T00:58:54;0.90;84.70
76537;DHT22;65381;51.254;15.592;2022-11-23T01:01:24;1.00;84.70
76537;DHT22;65381;51.254;15.592;2022-11-23T01:03:55;1.00;84.70
76537;DHT22;65381;51.254;15.592;2022-11-23T01:06:30;1.00;84.80
76537;DHT22;65381;51.254;15.592;2022-11-23T01:09:03;1.00;84.80
76537;DHT22;65381;51.254;15.592;2022-11-23T01:11:32;1.00;84.80
76537;DHT22;65381;51.254;15.592;2022-11-23T01:14:00;1.00;84.90
76537;DHT22;65381;51.254;15.592;2022-11-23T01:16:30;1.00;85.00
76537;DHT22;65381;51.254;15.592;2022-11-23T01:19:07;1.00;85.10
76537;DHT22;65381;51.254;15.592;2022-11-23T01:21:37;0.90;85.10
76537;DHT22;65381;51.254;15.592;2022-11-23T01:24:19;1.00;84.90
76537;DHT22;65381;51.254;15.592;2022-11-23T01:26:51;1.00;84.80
76537;DHT22;65381;51.254;15.592;2022-11-23T01:29:20;1.00;84.90
76537;DHT22;65381;51.254;15.592;2022-11-23T01:31:48;1.00;84.90
76537;DHT22;65381;51.254;15.592;2022-11-23T01:34:16;1.00;84.90
76537;DHT22;65381;51.254;15.592;2022-11-23T01:36:44;0.90;85.30
76537;DHT22;65381;51.254;15.592;2022-11-23T01:39:12;1.00;85.20
76537;DHT22;65381;51.254;15.592;2022-11-23T01:41:42;1.00;85.00
76537;DHT22;65381;51.254;15.592;2022-11-23T01:44:30;1.00;84.90
76537;DHT22;65381;51.254;15.592;2022-11-23T01:47:00;1.00;84.80
76537;DHT22;65381;51.254;15.592;2022-11-23T01:49:43;1.00;84.70
76537;DHT22;65381;51.254;15.592;2022-11-23T01:52:18;1.00;84.70
76537;DHT22;65381;51.254;15.592;2022-11-23T01:54:57;1.00;84.60
76537;DHT22;65381;51.254;15.592;2022-11-23T01:57:36;1.00;84.60
76537;DHT22;65381;51.254;15.592;2022-11-23T02:00:06;1.00;84.60
76537;DHT22;65381;51.254;15.592;2022-11-23T02:02:54;1.00;84.70
76537;DHT22;65381;51.254;15.592;2022-11-23T02:05:28;0.90;84.90
76537;DHT22;65381;51.254;15.592;2022-11-23T02:07:58;0.80;85.30
76537;DHT22;65381;51.254;15.592;2022-11-23T02:10:29;0.80;85.40
76537;DHT22;65381;51.254;15.592;2022-11-23T02:13:05;0.80;85.40
76537;DHT22;65381;51.254;15.592;2022-11-23T02:15:35;0.80;85.50
76537;DHT22;65381;51.254;15.592;2022-11-23T02:18:06;0.80;85.50
76537;DHT22;65381;51.254;15.592;2022-11-23T02:20:36;0.80;85.50
76537;DHT22;65381;51.254;15.592;2022-11-23T02:28:30;0.90;85.00
76537;DHT22;65381;51.254;15.592;2022-11-23T02:31:00;0.90;84.80
76537;DHT22;65381;51.254;15.592;2022-11-23T02:33:29;0.90;84.70
76537;DHT22;65381;51.254;15.592;2022-11-23T02:35:59;0.90;84.60
76537;DHT22;65381;51.254;15.592;2022-11-23T02:38:31;0.90;84.70
76537;DHT22;65381;51.254;15.592;2022-11-23T02:41:00;0.90;84.60
76537;DHT22;65381;51.254;15.592;2022-11-23T02:43:28;0.90;84.60
76537;DHT22;65381;51.254;15.592;2022-11-23T02:45:57;0.90;84.60
76537;DHT22;65381;51.254;15.592;2022-11-23T02:48:26;1.00;84.50
76537;DHT22;65381;51.254;15.592;2022-11-23T02:50:53;1.00;84.30
76537;DHT22;65381;51.254;15.592;2022-11-23T02:53:23;1.00;84.20
76537;DHT22;65381;51.254;15.592;2022-11-23T02:55:53;1.00;84.30
76537;DHT22;65381;51.254;15.592;2022-11-23T02:58:21;1.00;84.20
76537;DHT22;65381;51.254;15.592;2022-11-23T03:00:48;1.00;84.40
76537;DHT22;65381;51.254;15.592;2022-11-23T03:03:19;1.00;84.20
76537;DHT22;65381;51.254;15.592;2022-11-23T03:05:46;1.00;84.20
76537;DHT22;65381;51.254;15.592;2022-11-23T03:08:14;1.00;84.10
76537;DHT22;65381;51.254;15.592;2022-11-23T03:10:42;1.00;84.30
76537;DHT22;65381;51.254;15.592;2022-11-23T03:13:11;1.00;84.20
76537;DHT22;65381;51.254;15.592;2022-11-23T03:15:39;1.00;84.10
76537;DHT22;65381;51.254;15.592;2022-11-23T03:18:09;1.00;84.00
76537;DHT22;65381;51.254;15.592;2022-11-23T03:20:38;1.10;83.90
76537;DHT22;65381;51.254;15.592;2022-11-23T03:23:06;1.20;83.80
76537;DHT22;65381;51.254;15.592;2022-11-23T03:25:35;1.10;83.70
76537;DHT22;65381;51.254;15.592;2022-11-23T03:28:04;1.20;83.50
76537;DHT22;65381;51.254;15.592;2022-11-23T03:30:32;1.20;83.50
76537;DHT22;65381;51.254;15.592;2022-11-23T03:33:02;1.30;83.30
76537;DHT22;65381;51.254;15.592;2022-11-23T03:35:30;1.40;83.20
76537;DHT22;65381;51.254;15.592;2022-11-23T03:38:12;1.40;83.10
76537;DHT22;65381;51.254;15.592;2022-11-23T03:40:43;1.40;83.00
76537;DHT22;65381;51.254;15.592;2022-11-23T03:43:17;1.40;82.90
76537;DHT22;65381;51.254;15.592;2022-11-23T03:45:46;1.40;82.90
76537;DHT22;65381;51.254;15.592;2022-11-23T03:48:14;1.40;82.90
76537;DHT22;65381;51.254;15.592;2022-11-23T03:50:43;1.40;82.70
76537;DHT22;65381;51.254;15.592;2022-11-23T03:53:11;1.40;82.60
76537;DHT22;65381;51.254;15.592;2022-11-23T03:55:39;1.30;82.80
76537;DHT22;65381;51.254;15.592;2022-11-23T03:58:07;1.30;82.90
76537;DHT22;65381;51.254;15.592;2022-11-23T04:00:36;1.20;83.10
76537;DHT22;65381;51.254;15.592;2022-11-23T04:03:04;1.20;83.20
76537;DHT22;65381;51.254;15.592;2022-11-23T04:05:46;1.10;83.40
76537;DHT22;65381;51.254;15.592;2022-11-23T04:08:23;1.10;83.60
76537;DHT22;65381;51.254;15.592;2022-11-23T04:10:55;1.10;83.60
76537;DHT22;65381;51.254;15.592;2022-11-23T04:13:35;1.10;83.40
76537;DHT22;65381;51.254;15.592;2022-11-23T04:16:02;1.10;83.50
76537;DHT22;65381;51.254;15.592;2022-11-23T04:18:30;1.20;83.50
76537;DHT22;65381;51.254;15.592;2022-11-23T04:20:58;1.20;83.40
76537;DHT22;65381;51.254;15.592;2022-11-23T04:23:26;1.30;83.20
76537;DHT22;65381;51.254;15.592;2022-11-23T04:25:53;1.20;83.00
76537;DHT22;65381;51.254;15.592;2022-11-23T04:28:21;1.20;83.20
76537;DHT22;65381;51.254;15.592;2022-11-23T04:30:48;1.20;83.20
76537;DHT22;65381;51.254;15.592;2022-11-23T04:33:18;1.10;83.00
76537;DHT22;65381;51.254;15.592;2022-11-23T04:35:45;1.00;83.60
76537;DHT22;65381;51.254;15.592;2022-11-23T04:38:14;1.10;83.50
76537;DHT22;65381;51.254;15.592;2022-11-23T04:40:42;1.10;83.50
76537;DHT22;65381;51.254;15.592;2022-11-23T04:43:10;1.10;83.40
76537;DHT22;65381;51.254;15.592;2022-11-23T04:45:39;1.00;83.60
76537;DHT22;65381;51.254;15.592;2022-11-23T04:48:13;1.00;83.50
76537;DHT22;65381;51.254;15.592;2022-11-23T04:50:41;1.00;83.80
76537;DHT22;65381;51.254;15.592;2022-11-23T04:53:18;1.00;83.70
76537;DHT22;65381;51.254;15.592;2022-11-23T04:55:46;1.00;83.80
76537;DHT22;65381;51.254;15.592;2022-11-23T04:58:16;1.00;83.90
76537;DHT22;65381;51.254;15.592;2022-11-23T05:00:46;1.00;84.00
76537;DHT22;65381;51.254;15.592;2022-11-23T05:03:15;1.00;83.70
76537;DHT22;65381;51.254;15.592;2022-11-23T05:05:43;1.10;83.60
76537;DHT22;65381;51.254;15.592;2022-11-23T05:08:10;1.00;83.90
76537;DHT22;65381;51.254;15.592;2022-11-23T05:10:49;1.00;84.00
76537;DHT22;65381;51.254;15.592;2022-11-23T05:13:18;1.00;84.00
76537;DHT22;65381;51.254;15.592;2022-11-23T05:15:47;1.00;84.20
76537;DHT22;65381;51.254;15.592;2022-11-23T05:18:20;1.10;83.90
76537;DHT22;65381;51.254;15.592;2022-11-23T05:20:49;1.20;83.50
76537;DHT22;65381;51.254;15.592;2022-11-23T05:23:17;1.40;83.50
76537;DHT22;65381;51.254;15.592;2022-11-23T05:25:45;1.40;83.10
76537;DHT22;65381;51.254;15.592;2022-11-23T05:28:18;1.40;83.10
76537;DHT22;65381;51.254;15.592;2022-11-23T05:31:06;1.40;83.00
76537;DHT22;65381;51.254;15.592;2022-11-23T05:33:35;1.40;83.00
76537;DHT22;65381;51.254;15.592;2022-11-23T05:36:04;1.40;83.20
76537;DHT22;65381;51.254;15.592;2022-11-23T05:38:36;1.40;83.50
76537;DHT22;65381;51.254;15.592;2022-11-23T05:41:10;1.20;84.00
76537;DHT22;65381;51.254;15.592;2022-11-23T05:43:41;1.10;84.20
76537;DHT22;65381;51.254;15.592;2022-11-23T05:46:12;1.00;84.50
76537;DHT22;65381;51.254;15.592;2022-11-23T05:48:41;0.80;84.80
76537;DHT22;65381;51.254;15.592;2022-11-23T05:51:09;0.80;85.30
76537;DHT22;65381;51.254;15.592;2022-11-23T05:53:44;0.80;85.30
76537;DHT22;65381;51.254;15.592;2022-11-23T05:56:32;0.80;85.40
76537;DHT22;65381;51.254;15.592;2022-11-23T05:59:12;0.80;85.30
76537;DHT22;65381;51.254;15.592;2022-11-23T06:01:42;0.60;85.50
76537;DHT22;65381;51.254;15.592;2022-11-23T06:04:13;0.60;85.70
76537;DHT22;65381;51.254;15.592;2022-11-23T06:06:44;0.60;85.90
76537;DHT22;65381;51.254;15.592;2022-11-23T06:09:12;0.60;86.10
76537;DHT22;65381;51.254;15.592;2022-11-23T06:11:44;0.60;86.20
76537;DHT22;65381;51.254;15.592;2022-11-23T06:14:16;0.60;86.30
76537;DHT22;65381;51.254;15.592;2022-11-23T06:16:45;0.60;86.20
76537;DHT22;65381;51.254;15.592;2022-11-23T06:19:42;0.70;86.10
76537;DHT22;65381;51.254;15.592;2022-11-23T06:22:10;0.80;86.10
76537;DHT22;65381;51.254;15.592;2022-11-23T06:24:46;1.00;85.70
76537;DHT22;65381;51.254;15.592;2022-11-23T06:27:54;1.00;85.70
76537;DHT22;65381;51.254;15.592;2022-11-23T06:30:27;1.20;85.00
76537;DHT22;65381;51.254;15.592;2022-11-23T06:33:03;1.20;84.70
76537;DHT22;65381;51.254;15.592;2022-11-23T06:35:37;1.20;84.70
76537;DHT22;65381;51.254;15.592;2022-11-23T06:38:04;1.30;84.70
76537;DHT22;65381;51.254;15.592;2022-11-23T06:40:33;1.20;84.60
76537;DHT22;65381;51.254;15.592;2022-11-23T06:43:02;1.20;84.60
76537;DHT22;65381;51.254;15.592;2022-11-23T06:45:37;1.20;84.70
76537;DHT22;65381;51.254;15.592;2022-11-23T06:48:09;1.20;84.60
76537;DHT22;65381;51.254;15.592;2022-11-23T06:50:42;1.20;84.50
76537;DHT22;65381;51.254;15.592;2022-11-23T06:53:09;1.10;84.70
76537;DHT22;65381;51.254;15.592;2022-11-23T06:55:47;1.10;84.90
76537;DHT22;65381;51.254;15.592;2022-11-23T06:58:17;1.00;84.70
76537;DHT22;65381;51.254;15.592;2022-11-23T07:00:45;1.00;85.00
76537;DHT22;65381;51.254;15.592;2022-11-23T07:03:23;0.90;85.10
76537;DHT22;65381;51.254;15.592;2022-11-23T07:06:06;1.00;85.50
76537;DHT22;65381;51.254;15.592;2022-11-23T07:08:35;0.90;85.50
76537;DHT22;65381;51.254;15.592;2022-11-23T07:11:17;1.10;85.40
76537;DHT22;65381;51.254;15.592;2022-11-23T07:13:45;1.30;84.70
76537;DHT22;65381;51.254;15.592;2022-11-23T07:16:13;1.40;84.50
76537;DHT22;65381;51.254;15.592;2022-11-23T07:18:41;1.50;84.00
76537;DHT22;65381;51.254;15.592;2022-11-23T07:21:09;1.50;83.70
76537;DHT22;65381;51.254;15.592;2022-11-23T07:23:37;1.40;83.70
76537;DHT22;65381;51.254;15.592;2022-11-23T07:26:08;1.30;84.30
76537;DHT22;65381;51.254;15.592;2022-11-23T07:28:36;1.20;84.60
76537;DHT22;65381;51.254;15.592;2022-11-23T07:31:05;1.20;84.90
76537;DHT22;65381;51.254;15.592;2022-11-23T07:33:32;1.20;85.20
76537;DHT22;65381;51.254;15.592;2022-11-23T07:36:01;1.30;85.30
76537;DHT22;65381;51.254;15.592;2022-11-23T07:38:30;1.40;85.20
76537;DHT22;65381;51.254;15.592;2022-11-23T07:40:59;1.50;85.00
76537;DHT22;65381;51.254;15.592;2022-11-23T07:43:53;1.60;84.30
76537;DHT22;65381;51.254;15.592;2022-11-23T07:46:21;1.60;84.30
76537;DHT22;65381;51.254;15.592;2022-11-23T07:48:49;1.60;84.50
76537;DHT22;65381;51.254;15.592;2022-11-23T07:51:17;1.60;84.30
76537;DHT22;65381;51.254;15.592;2022-11-23T07:53:46;1.70;84.40
76537;DHT22;65381;51.254;15.592;2022-11-23T07:56:14;1.60;84.40
76537;DHT22;65381;51.254;15.592;2022-11-23T07:58:42;1.70;84.20
76537;DHT22;65381;51.254;15.592;2022-11-23T08:01:14;1.70;84.30
76537;DHT22;65381;51.254;15.592;2022-11-23T08:03:45;1.70;84.20
76537;DHT22;65381;51.254;15.592;2022-11-23T08:06:14;1.90;83.90
76537;DHT22;65381;51.254;15.592;2022-11-23T08:08:42;1.90;83.60
76537;DHT22;65381;51.254;15.592;2022-11-23T08:11:10;1.90;83.70
76537;DHT22;65381;51.254;15.592;2022-11-23T08:13:40;1.90;83.40
76537;DHT22;65381;51.254;15.592;2022-11-23T08:16:08;2.00;83.60
76537;DHT22;65381;51.254;15.592;2022-11-23T08:18:36;1.90;83.80
76537;DHT22;65381;51.254;15.592;2022-11-23T08:21:04;1.90;83.90
76537;DHT22;65381;51.254;15.592;2022-11-23T08:23:32;2.00;84.10
76537;DHT22;65381;51.254;15.592;2022-11-23T08:26:02;2.00;84.10
76537;DHT22;65381;51.254;15.592;2022-11-23T08:28:36;2.00;83.90
76537;DHT22;65381;51.254;15.592;2022-11-23T08:31:09;2.00;83.70
76537;DHT22;65381;51.254;15.592;2022-11-23T08:33:41;2.10;83.90
76537;DHT22;65381;51.254;15.592;2022-11-23T08:36:08;2.10;84.00
76537;DHT22;65381;51.254;15.592;2022-11-23T08:38:36;2.10;83.90
76537;DHT22;65381;51.254;15.592;2022-11-23T08:41:04;2.20;84.10
76537;DHT22;65381;51.254;15.592;2022-11-23T08:43:32;2.30;84.20
76537;DHT22;65381;51.254;15.592;2022-11-23T08:46:02;2.30;84.20
76537;DHT22;65381;51.254;15.592;2022-11-23T08:48:37;2.40;83.80
76537;DHT22;65381;51.254;15.592;2022-11-23T08:51:05;2.50;83.80
76537;DHT22;65381;51.254;15.592;2022-11-23T08:53:33;2.50;83.60
76537;DHT22;65381;51.254;15.592;2022-11-23T08:56:06;2.70;83.20
76537;DHT22;65381;51.254;15.592;2022-11-23T08:58:33;2.90;82.80
76537;DHT22;65381;51.254;15.592;2022-11-23T09:01:01;3.00;82.50
76537;DHT22;65381;51.254;15.592;2022-11-23T09:03:33;3.10;82.00
76537;DHT22;65381;51.254;15.592;2022-11-23T09:06:01;3.10;81.50
76537;DHT22;65381;51.254;15.592;2022-11-23T09:08:29;3.20;81.60
76537;DHT22;65381;51.254;15.592;2022-11-23T09:11:01;3.30;80.60
76537;DHT22;65381;51.254;15.592;2022-11-23T09:13:30;3.40;80.70
76537;DHT22;65381;51.254;15.592;2022-11-23T09:15:58;3.50;80.40
76537;DHT22;65381;51.254;15.592;2022-11-23T09:18:27;3.50;79.70
76537;DHT22;65381;51.254;15.592;2022-11-23T09:20:56;3.60;79.40
76537;DHT22;65381;51.254;15.592;2022-11-23T09:23:24;3.60;79.30
76537;DHT22;65381;51.254;15.592;2022-11-23T09:25:53;3.60;79.40
76537;DHT22;65381;51.254;15.592;2022-11-23T09:28:20;3.60;79.40
76537;DHT22;65381;51.254;15.592;2022-11-23T09:30:50;3.70;79.60
76537;DHT22;65381;51.254;15.592;2022-11-23T09:33:19;3.70;79.20
76537;DHT22;65381;51.254;15.592;2022-11-23T09:35:54;3.90;78.50
76537;DHT22;65381;51.254;15.592;2022-11-23T09:38:22;3.90;78.60
76537;DHT22;65381;51.254;15.592;2022-11-23T09:41:26;3.90;78.90
76537;DHT22;65381;51.254;15.592;2022-11-23T09:49:29;3.90;79.20
76537;DHT22;65381;51.254;15.592;2022-11-23T09:51:59;3.90;79.70
76537;DHT22;65381;51.254;15.592;2022-11-23T09:54:33;3.90;80.10
76537;DHT22;65381;51.254;15.592;2022-11-23T09:57:03;3.90;80.40
76537;DHT22;65381;51.254;15.592;2022-11-23T09:59:43;3.90;80.10
76537;DHT22;65381;51.254;15.592;2022-11-23T10:02:23;3.90;79.80
76537;DHT22;65381;51.254;15.592;2022-11-23T10:04:52;4.00;79.80
76537;DHT22;65381;51.254;15.592;2022-11-23T10:15:44;4.20;79.70
76537;DHT22;65381;51.254;15.592;2022-11-23T10:21:00;4.40;80.10
76537;DHT22;65381;51.254;15.592;2022-11-23T10:23:51;4.30;79.70
76537;DHT22;65381;51.254;15.592;2022-11-23T10:26:31;4.40;79.80
76537;DHT22;65381;51.254;15.592;2022-11-23T10:29:29;4.40;78.50
76537;DHT22;65381;51.254;15.592;2022-11-23T10:31:57;4.40;79.10
76537;DHT22;65381;51.254;15.592;2022-11-23T10:37:12;4.40;79.10
76537;DHT22;65381;51.254;15.592;2022-11-23T10:39:41;4.40;78.00
76537;DHT22;65381;51.254;15.592;2022-11-23T10:44:56;4.30;78.70
76537;DHT22;65381;51.254;15.592;2022-11-23T10:47:35;4.30;78.50
76537;DHT22;65381;51.254;15.592;2022-11-23T10:53:19;4.20;79.00
76537;DHT22;65381;51.254;15.592;2022-11-23T10:58:31;4.20;78.00
76537;DHT22;65381;51.254;15.592;2022-11-23T11:01:14;4.20;78.80
76537;DHT22;65381;51.254;15.592;2022-11-23T11:03:43;4.20;78.20
76537;DHT22;65381;51.254;15.592;2022-11-23T11:06:24;4.20;78.10
76537;DHT22;65381;51.254;15.592;2022-11-23T11:08:57;4.20;79.10
76537;DHT22;65381;51.254;15.592;2022-11-23T11:11:35;4.20;78.80
76537;DHT22;65381;51.254;15.592;2022-11-23T11:16:35;4.20;79.00
76537;DHT22;65381;51.254;15.592;2022-11-23T11:19:27;4.20;79.00
76537;DHT22;65381;51.254;15.592;2022-11-23T11:21:57;4.30;79.00
76537;DHT22;65381;51.254;15.592;2022-11-23T11:24:36;4.40;79.20
76537;DHT22;65381;51.254;15.592;2022-11-23T11:27:25;4.40;78.20
76537;DHT22;65381;51.254;15.592;2022-11-23T11:29:57;4.40;78.20
76537;DHT22;65381;51.254;15.592;2022-11-23T11:32:33;4.50;79.10
76537;DHT22;65381;51.254;15.592;2022-11-23T11:35:27;4.50;79.50
76537;DHT22;65381;51.254;15.592;2022-11-23T11:38:25;4.50;79.20
76537;DHT22;65381;51.254;15.592;2022-11-23T11:40:58;4.60;79.30
76537;DHT22;65381;51.254;15.592;2022-11-23T11:43:41;4.50;78.80
76537;DHT22;65381;51.254;15.592;2022-11-23T11:46:16;4.50;79.00
76537;DHT22;65381;51.254;15.592;2022-11-23T11:49:05;4.50;79.60
76537;DHT22;65381;51.254;15.592;2022-11-23T11:51:41;4.60;79.50
76537;DHT22;65381;51.254;15.592;2022-11-23T11:56:41;4.70;79.50
76537;DHT22;65381;51.254;15.592;2022-11-23T12:07:04;5.10;79.70
76537;DHT22;65381;51.254;15.592;2022-11-23T12:09:38;5.10;79.70
76537;DHT22;65381;51.254;15.592;2022-11-23T12:12:15;5.00;79.60
76537;DHT22;65381;51.254;15.592;2022-11-23T12:14:44;5.00;79.70
76537;DHT22;65381;51.254;15.592;2022-11-23T12:23:12;4.80;80.00
76537;DHT22;65381;51.254;15.592;2022-11-23T12:25:57;4.80;80.50
76537;DHT22;65381;51.254;15.592;2022-11-23T12:58:29;4.40;81.00
76537;DHT22;65381;51.254;15.592;2022-11-23T13:01:13;4.20;80.70
76537;DHT22;65381;51.254;15.592;2022-11-23T13:22:19;3.40;83.50
76537;DHT22;65381;51.254;15.592;2022-11-23T13:27:38;3.30;84.20
76537;DHT22;65381;51.254;15.592;2022-11-23T13:32:57;3.30;84.80
76537;DHT22;65381;51.254;15.592;2022-11-23T13:40:29;3.20;85.10
76537;DHT22;65381;51.254;15.592;2022-11-23T13:48:51;3.30;85.50
76537;DHT22;65381;51.254;15.592;2022-11-23T13:51:29;3.30;85.50
76537;DHT22;65381;51.254;15.592;2022-11-23T13:54:15;3.40;85.30
76537;DHT22;65381;51.254;15.592;2022-11-23T13:56:45;3.50;85.20
76537;DHT22;65381;51.254;15.592;2022-11-23T14:04:40;3.50;85.20
76537;DHT22;65381;51.254;15.592;2022-11-23T14:07:28;3.60;84.70
76537;DHT22;65381;51.254;15.592;2022-11-23T14:10:18;3.60;84.20
76537;DHT22;65381;51.254;15.592;2022-11-23T14:15:51;3.60;84.20
76537;DHT22;65381;51.254;15.592;2022-11-23T14:21:05;3.50;83.60
76537;DHT22;65381;51.254;15.592;2022-11-23T14:37:35;3.40;83.40
76537;DHT22;65381;51.254;15.592;2022-11-23T14:40:11;3.40;83.50
76537;DHT22;65381;51.254;15.592;2022-11-23T14:42:43;3.40;83.80
76537;DHT22;65381;51.254;15.592;2022-11-23T14:45:13;3.30;84.10
76537;DHT22;65381;51.254;15.592;2022-11-23T14:47:41;3.30;84.10
76537;DHT22;65381;51.254;15.592;2022-11-23T14:50:24;3.30;84.00
76537;DHT22;65381;51.254;15.592;2022-11-23T14:52:54;3.30;84.20
76537;DHT22;65381;51.254;15.592;2022-11-23T14:55:27;3.30;84.40
76537;DHT22;65381;51.254;15.592;2022-11-23T14:58:02;3.20;84.60
76537;DHT22;65381;51.254;15.592;2022-11-23T15:00:42;3.10;84.60
76537;DHT22;65381;51.254;15.592;2022-11-23T15:03:18;3.10;84.60
76537;DHT22;65381;51.254;15.592;2022-11-23T15:06:13;3.00;84.90
76537;DHT22;65381;51.254;15.592;2022-11-23T15:08:45;2.90;84.90
76537;DHT22;65381;51.254;15.592;2022-11-23T15:11:18;2.90;85.00
76537;DHT22;65381;51.254;15.592;2022-11-23T15:13:52;2.90;85.00
76537;DHT22;65381;51.254;15.592;2022-11-23T15:16:21;2.80;84.70
76537;DHT22;65381;51.254;15.592;2022-11-23T15:18:50;2.70;84.70
76537;DHT22;65381;51.254;15.592;2022-11-23T15:21:20;2.60;84.50
76537;DHT22;65381;51.254;15.592;2022-11-23T15:23:55;2.50;84.80
76537;DHT22;65381;51.254;15.592;2022-11-23T15:26:29;2.40;85.30
76537;DHT22;65381;51.254;15.592;2022-11-23T15:29:34;2.50;85.60
76537;DHT22;65381;51.254;15.592;2022-11-23T15:32:28;2.40;85.90
76537;DHT22;65381;51.254;15.592;2022-11-23T15:35:04;2.40;86.20
76537;DHT22;65381;51.254;15.592;2022-11-23T15:37:45;2.30;86.30
76537;DHT22;65381;51.254;15.592;2022-11-23T15:40:15;2.30;86.50
76537;DHT22;65381;51.254;15.592;2022-11-23T15:42:45;2.30;86.70
76537;DHT22;65381;51.254;15.592;2022-11-23T15:45:32;2.20;86.60
76537;DHT22;65381;51.254;15.592;2022-11-23T15:48:08;2.20;86.80
76537;DHT22;65381;51.254;15.592;2022-11-23T15:53:49;2.10;87.20
76537;DHT22;65381;51.254;15.592;2022-11-23T15:56:32;2.10;87.50
76537;DHT22;65381;51.254;15.592;2022-11-23T15:59:03;2.10;87.50
76537;DHT22;65381;51.254;15.592;2022-11-23T16:01:31;2.10;87.70
76537;DHT22;65381;51.254;15.592;2022-11-23T16:04:00;2.10;87.90
76537;DHT22;65381;51.254;15.592;2022-11-23T16:09:31;2.10;87.90
76537;DHT22;65381;51.254;15.592;2022-11-23T16:14:57;2.10;87.90
76537;DHT22;65381;51.254;15.592;2022-11-23T16:17:28;2.10;88.00
76537;DHT22;65381;51.254;15.592;2022-11-23T16:19:57;2.10;87.80
76537;DHT22;65381;51.254;15.592;2022-11-23T16:22:31;2.10;87.80
76537;DHT22;65381;51.254;15.592;2022-11-23T16:25:16;2.10;88.20
76537;DHT22;65381;51.254;15.592;2022-11-23T16:28:04;2.10;88.10
76537;DHT22;65381;51.254;15.592;2022-11-23T16:30:38;2.10;88.30
76537;DHT22;65381;51.254;15.592;2022-11-23T16:33:15;2.10;88.20
76537;DHT22;65381;51.254;15.592;2022-11-23T16:35:44;2.10;88.10
76537;DHT22;65381;51.254;15.592;2022-11-23T16:38:12;2.00;88.00
76537;DHT22;65381;51.254;15.592;2022-11-23T16:40:41;2.00;88.10
76537;DHT22;65381;51.254;15.592;2022-11-23T16:43:10;1.90;88.10
76537;DHT22;65381;51.254;15.592;2022-11-23T16:45:44;1.90;88.50
76537;DHT22;65381;51.254;15.592;2022-11-23T16:48:34;1.90;88.60
76537;DHT22;65381;51.254;15.592;2022-11-23T16:51:02;1.90;88.60
76537;DHT22;65381;51.254;15.592;2022-11-23T16:53:30;1.90;88.60
76537;DHT22;65381;51.254;15.592;2022-11-23T16:56:25;1.80;88.70
76537;DHT22;65381;51.254;15.592;2022-11-23T16:58:54;1.80;89.00
76537;DHT22;65381;51.254;15.592;2022-11-23T17:01:25;1.80;89.20
76537;DHT22;65381;51.254;15.592;2022-11-23T17:03:53;1.80;89.30
76537;DHT22;65381;51.254;15.592;2022-11-23T17:06:21;1.80;89.20
76537;DHT22;65381;51.254;15.592;2022-11-23T17:08:51;1.80;89.30
76537;DHT22;65381;51.254;15.592;2022-11-23T17:11:27;1.80;89.40
76537;DHT22;65381;51.254;15.592;2022-11-23T17:13:57;1.80;89.50
76537;DHT22;65381;51.254;15.592;2022-11-23T17:16:25;1.90;89.60
76537;DHT22;65381;51.254;15.592;2022-11-23T17:18:53;1.80;89.30
76537;DHT22;65381;51.254;15.592;2022-11-23T17:21:21;1.80;89.40
76537;DHT22;65381;51.254;15.592;2022-11-23T17:23:49;1.80;89.40
76537;DHT22;65381;51.254;15.592;2022-11-23T17:28:51;1.80;89.40
76537;DHT22;65381;51.254;15.592;2022-11-23T17:31:19;1.70;89.50
76537;DHT22;65381;51.254;15.592;2022-11-23T17:33:48;1.60;89.50
76537;DHT22;65381;51.254;15.592;2022-11-23T17:36:16;1.50;89.70
76537;DHT22;65381;51.254;15.592;2022-11-23T17:38:44;1.40;89.70
76537;DHT22;65381;51.254;15.592;2022-11-23T17:41:14;1.40;90.00
76537;DHT22;65381;51.254;15.592;2022-11-23T17:43:42;1.30;90.20
76537;DHT22;65381;51.254;15.592;2022-11-23T17:46:21;1.20;90.40
76537;DHT22;65381;51.254;15.592;2022-11-23T17:48:54;1.30;90.60
76537;DHT22;65381;51.254;15.592;2022-11-23T17:51:23;1.20;90.60
76537;DHT22;65381;51.254;15.592;2022-11-23T17:53:51;1.20;90.70
76537;DHT22;65381;51.254;15.592;2022-11-23T17:56:21;1.20;90.80
76537;DHT22;65381;51.254;15.592;2022-11-23T17:58:49;1.20;90.90
76537;DHT22;65381;51.254;15.592;2022-11-23T18:01:20;1.30;91.10
76537;DHT22;65381;51.254;15.592;2022-11-23T18:03:48;1.40;91.20
76537;DHT22;65381;51.254;15.592;2022-11-23T18:06:19;1.40;91.00
76537;DHT22;65381;51.254;15.592;2022-11-23T18:08:47;1.40;91.10
76537;DHT22;65381;51.254;15.592;2022-11-23T18:11:17;1.40;91.20
76537;DHT22;65381;51.254;15.592;2022-11-23T18:13:45;1.50;91.20
76537;DHT22;65381;51.254;15.592;2022-11-23T18:16:16;1.50;91.20
76537;DHT22;65381;51.254;15.592;2022-11-23T18:18:44;1.60;91.30
76537;DHT22;65381;51.254;15.592;2022-11-23T18:21:12;1.60;91.50
76537;DHT22;65381;51.254;15.592;2022-11-23T18:23:41;1.60;91.50
76537;DHT22;65381;51.254;15.592;2022-11-23T18:28:40;1.60;91.50
76537;DHT22;65381;51.254;15.592;2022-11-23T18:31:09;1.60;91.60
76537;DHT22;65381;51.254;15.592;2022-11-23T18:33:36;1.70;91.70
76537;DHT22;65381;51.254;15.592;2022-11-23T18:36:04;1.70;91.70
76537;DHT22;65381;51.254;15.592;2022-11-23T18:38:33;1.70;91.70